createdAt,value
2023-01-21T00:02:02.146Z,-0.03
2023-01-21T00:04:30.416Z,-0.08
2023-01-21T00:06:58.746Z,-0.12
2023-01-21T00:09:27.005Z,-0.13
2023-01-21T00:11:56.585Z,-0.17
2023-01-21T00:14:24.840Z,-0.20
2023-01-21T00:16:53.148Z,-0.14
2023-01-21T00:19:21.416Z,-0.17
2023-01-21T00:21:49.655Z,-0.15
2023-01-21T00:24:18.392Z,-0.20
2023-01-21T00:26:46.705Z,-0.15
2023-01-21T00:29:17.382Z,-0.13
2023-01-21T00:31:45.814Z,-0.16
2023-01-21T00:34:14.188Z,-0.17
2023-01-21T00:36:42.421Z,-0.15
2023-01-21T00:39:10.823Z,-0.08
2023-01-21T00:41:39.520Z,-0.19
2023-01-21T00:44:10.711Z,-0.28
2023-01-21T00:46:40.871Z,-0.29
2023-01-21T00:49:09.165Z,-0.35
2023-01-21T00:51:38.175Z,-0.34
2023-01-21T00:54:06.505Z,-0.36
2023-01-21T00:56:34.703Z,-0.40
2023-01-21T00:59:03.059Z,-0.37
2023-01-21T01:01:34.544Z,-0.34
2023-01-21T01:04:05.487Z,-0.38
2023-01-21T01:06:33.998Z,-0.38
2023-01-21T01:09:02.211Z,-0.42
2023-01-21T01:11:31.620Z,-0.49
2023-01-21T01:14:00.450Z,-0.47
2023-01-21T01:16:28.904Z,-0.41
2023-01-21T01:18:57.893Z,-0.45
2023-01-21T01:21:27.532Z,-0.36
2023-01-21T01:24:00.756Z,-0.29
2023-01-21T01:26:29.050Z,-0.27
2023-01-21T01:28:57.441Z,-0.30
2023-01-21T01:31:25.722Z,-0.28
2023-01-21T01:33:57.794Z,-0.35
2023-01-21T01:36:27.377Z,-0.29
2023-01-21T01:38:56.305Z,-0.29
2023-01-21T01:41:27.462Z,-0.21
2023-01-21T01:43:59.463Z,-0.23
2023-01-21T01:46:30.615Z,-0.17
2023-01-21T01:49:10.764Z,-0.25
2023-01-21T01:51:47.419Z,-0.26
2023-01-21T01:54:19.400Z,-0.25
2023-01-21T01:56:51.553Z,-0.30
2023-01-21T01:59:20.822Z,-0.36
2023-01-21T02:01:49.375Z,-0.32
2023-01-21T02:04:22.341Z,-0.39
2023-01-21T02:06:55.947Z,-0.41
2023-01-21T02:09:29.725Z,-0.44
2023-01-21T02:11:59.001Z,-0.49
2023-01-21T02:14:27.524Z,-0.46
2023-01-21T02:17:18.035Z,-0.44
2023-01-21T02:20:20.725Z,-0.51
2023-01-21T02:22:57.479Z,-0.66
2023-01-21T02:25:52.107Z,-0.66
2023-01-21T02:29:12.841Z,-0.65
2023-01-21T02:32:01.961Z,-0.66
2023-01-21T02:34:39.105Z,-0.68
2023-01-21T02:37:11.985Z,-0.68
2023-01-21T02:40:00.904Z,-0.71
2023-01-21T02:42:36.049Z,-0.72
2023-01-21T02:45:15.746Z,-0.69
2023-01-21T02:47:54.457Z,-0.66
2023-01-21T02:50:26.200Z,-0.72
2023-01-21T02:52:58.494Z,-0.70
2023-01-21T02:55:30.667Z,-0.73
2023-01-21T02:58:03.171Z,-0.72
2023-01-21T03:00:45.042Z,-0.80
2023-01-21T03:03:37.441Z,-0.82
2023-01-21T03:06:30.072Z,-0.84
2023-01-21T03:09:03.214Z,-0.76
2023-01-21T03:11:31.680Z,-0.75
2023-01-21T03:14:26.120Z,-0.72
2023-01-21T03:17:01.818Z,-0.74
2023-01-21T03:19:36.736Z,-0.72
2023-01-21T03:22:11.121Z,-0.75
2023-01-21T03:24:41.581Z,-0.79
2023-01-21T03:27:12.230Z,-0.81
2023-01-21T03:29:42.323Z,-0.79
2023-01-21T03:32:14.689Z,-0.85
2023-01-21T03:34:49.063Z,-0.84
2023-01-21T03:37:27.053Z,-0.86
2023-01-21T03:40:04.332Z,-0.95
2023-01-21T03:42:32.933Z,-0.99
2023-01-21T03:45:01.581Z,-1.01
2023-01-21T03:47:33.285Z,-0.97
2023-01-21T03:50:08.877Z,-0.93
2023-01-21T03:52:40.939Z,-0.97
2023-01-21T03:55:10.959Z,-1.02
2023-01-21T03:57:39.758Z,-1.09
2023-01-21T04:00:11.577Z,-1.03
2023-01-21T04:02:40.223Z,-1.09
2023-01-21T04:05:09.145Z,-1.05
2023-01-21T04:07:39.009Z,-1.13
2023-01-21T04:10:08.608Z,-1.15
2023-01-21T04:12:36.847Z,-1.11
2023-01-21T04:15:09.605Z,-1.16
2023-01-21T04:17:38.638Z,-1.15
2023-01-21T04:20:08.722Z,-1.15
2023-01-21T04:22:39.764Z,-1.17
2023-01-21T04:25:08.449Z,-1.13
2023-01-21T04:27:37.197Z,-1.15
2023-01-21T04:30:09.066Z,-1.13
2023-01-21T04:32:38.296Z,-1.14
2023-01-21T04:35:07.485Z,-1.17
2023-01-21T04:37:35.718Z,-1.14
2023-01-21T04:40:05.945Z,-1.19
2023-01-21T04:42:34.171Z,-1.19
2023-01-21T04:45:02.441Z,-1.14
2023-01-21T04:47:30.719Z,-1.11
2023-01-21T04:49:58.918Z,-1.12
2023-01-21T04:52:27.165Z,-1.10
2023-01-21T04:54:55.380Z,-1.03
2023-01-21T04:57:25.119Z,-1.02
2023-01-21T04:59:53.465Z,-1.00
2023-01-21T05:02:21.799Z,-1.10
2023-01-21T05:04:50.139Z,-1.09
2023-01-21T05:07:20.821Z,-1.15
2023-01-21T05:09:50.177Z,-1.12
2023-01-21T05:12:18.423Z,-1.13
2023-01-21T05:14:48.043Z,-1.10
2023-01-21T05:17:16.285Z,-1.11
2023-01-21T05:19:44.598Z,-1.04
2023-01-21T05:22:12.900Z,-1.00
2023-01-21T05:24:41.149Z,-0.99
2023-01-21T05:27:09.564Z,-1.04
2023-01-21T05:29:38.531Z,-1.08
2023-01-21T05:32:11.512Z,-1.13
2023-01-21T05:34:41.448Z,-1.12
2023-01-21T05:37:09.883Z,-1.13
2023-01-21T05:39:38.995Z,-1.12
2023-01-21T05:42:08.206Z,-1.09
2023-01-21T05:44:36.447Z,-1.14
2023-01-21T05:47:08.856Z,-1.13
2023-01-21T05:49:37.899Z,-1.11
2023-01-21T05:52:06.555Z,-1.20
2023-01-21T05:54:34.840Z,-1.20
2023-01-21T05:57:04.974Z,-1.21
2023-01-21T05:59:33.197Z,-1.21
2023-01-21T06:02:01.473Z,-1.25
2023-01-21T06:04:31.415Z,-1.28
2023-01-21T06:06:59.718Z,-1.23
2023-01-21T06:09:28.049Z,-1.17
2023-01-21T06:11:58.471Z,-1.20
2023-01-21T06:14:26.720Z,-1.25
2023-01-21T06:16:55.016Z,-1.27
2023-01-21T06:19:23.279Z,-1.28
2023-01-21T06:21:53.467Z,-1.27
2023-01-21T06:24:21.690Z,-1.29
2023-01-21T06:26:49.889Z,-1.31
2023-01-21T06:29:18.368Z,-1.25
2023-01-21T06:31:46.776Z,-1.26
2023-01-21T06:34:15.515Z,-1.26
2023-01-21T06:36:43.815Z,-1.25
2023-01-21T06:39:13.604Z,-1.27
2023-01-21T06:41:42.005Z,-1.28
2023-01-21T06:44:10.284Z,-1.28
2023-01-21T06:46:43.314Z,-1.32
2023-01-21T06:49:14.115Z,-1.33
2023-01-21T06:51:43.159Z,-1.41
2023-01-21T06:54:13.467Z,-1.40
2023-01-21T06:56:43.714Z,-1.41
2023-01-21T06:59:12.040Z,-1.45
2023-01-21T07:01:40.819Z,-1.44
2023-01-21T07:04:09.187Z,-1.46
2023-01-21T07:06:38.341Z,-1.46
2023-01-21T07:09:07.270Z,-1.46
2023-01-21T07:11:39.704Z,-1.52
2023-01-21T07:14:09.111Z,-1.57
2023-01-21T07:16:39.628Z,-1.59
2023-01-21T07:19:07.965Z,-1.65
2023-01-21T07:21:36.302Z,-1.70
2023-01-21T07:24:04.794Z,-1.70
2023-01-21T07:26:36.185Z,-1.70
2023-01-21T07:29:06.667Z,-1.73
2023-01-21T07:31:35.686Z,-1.69
2023-01-21T07:34:04.505Z,-1.70
2023-01-21T07:36:33.158Z,-1.72
2023-01-21T07:39:01.588Z,-1.72
2023-01-21T07:41:29.858Z,-1.72
2023-01-21T07:43:58.125Z,-1.73
2023-01-21T07:46:27.923Z,-1.69
2023-01-21T07:48:56.183Z,-1.72
2023-01-21T07:51:24.484Z,-1.69
2023-01-21T07:53:52.718Z,-1.68
2023-01-21T07:56:21.042Z,-1.65
2023-01-21T07:58:50.451Z,-1.62
2023-01-21T08:01:18.731Z,-1.65
2023-01-21T08:03:48.327Z,-1.65
2023-01-21T08:06:16.586Z,-1.65
2023-01-21T08:08:44.849Z,-1.58
2023-01-21T08:11:13.238Z,-1.59
2023-01-21T08:13:41.466Z,-1.56
2023-01-21T08:16:11.693Z,-1.50
2023-01-21T08:18:40.002Z,-1.49
2023-01-21T08:21:09.626Z,-1.44
2023-01-21T08:23:37.984Z,-1.39
2023-01-21T08:26:07.720Z,-1.43
2023-01-21T08:28:36.245Z,-1.34
2023-01-21T08:31:06.359Z,-1.31
2023-01-21T08:33:34.814Z,-1.27
2023-01-21T08:36:03.799Z,-1.23
2023-01-21T08:38:33.701Z,-1.19
2023-01-21T08:41:02.044Z,-1.14
2023-01-21T08:43:30.505Z,-1.06
2023-01-21T08:46:01.653Z,-0.98
2023-01-21T08:48:30.320Z,-0.97
2023-01-21T08:51:00.758Z,-0.91
2023-01-21T08:53:29.167Z,-0.83
2023-01-21T08:56:01.571Z,-0.77
2023-01-21T08:58:29.867Z,-0.72
2023-01-21T09:00:58.855Z,-0.61
2023-01-21T09:03:27.349Z,-0.57
2023-01-21T09:05:55.882Z,-0.51
2023-01-21T09:08:24.148Z,-0.46
2023-01-21T09:11:05.437Z,-0.43
2023-01-21T09:13:37.462Z,-0.37
2023-01-21T09:16:10.159Z,-0.29
2023-01-21T09:18:39.317Z,-0.23
2023-01-21T09:21:08.398Z,-0.26
2023-01-21T09:23:37.804Z,-0.15
2023-01-21T09:26:07.932Z,-0.12
2023-01-21T09:28:39.274Z,-0.07
2023-01-21T09:31:09.397Z,-0.01
2023-01-21T09:33:39.898Z,-0.01
2023-01-21T09:36:11.931Z,0.10
2023-01-21T09:38:42.354Z,0.13
2023-01-21T09:41:22.200Z,0.19
2023-01-21T09:44:00.173Z,0.27
2023-01-21T09:46:36.193Z,0.25
2023-01-21T09:49:08.263Z,0.42
2023-01-21T09:51:46.467Z,0.42
2023-01-21T09:54:20.756Z,0.48
2023-01-21T09:57:01.754Z,0.46
2023-01-21T09:59:46.564Z,0.46
2023-01-21T10:02:24.632Z,0.55
2023-01-21T10:05:01.321Z,0.61
2023-01-21T10:07:35.786Z,0.67
2023-01-21T10:10:15.136Z,0.76
2023-01-21T10:13:14.467Z,0.76
2023-01-21T10:15:56.460Z,0.77
2023-01-21T10:18:30.687Z,0.92
2023-01-21T10:21:04.976Z,0.88
2023-01-21T10:23:39.021Z,0.84
2023-01-21T10:26:10.308Z,0.99
2023-01-21T10:28:41.738Z,1.12
2023-01-21T10:31:20.833Z,1.17
2023-01-21T10:33:49.351Z,1.27
2023-01-21T10:36:44.862Z,1.46
2023-01-21T10:39:21.711Z,1.43
2023-01-21T10:42:10.997Z,1.41
2023-01-21T10:44:46.992Z,1.38
2023-01-21T10:47:27.299Z,1.42
2023-01-21T10:50:04.205Z,1.63
2023-01-21T10:52:39.695Z,1.86
2023-01-21T10:55:22.715Z,1.94
2023-01-21T10:57:59.805Z,1.99
2023-01-21T11:00:30.653Z,2.03
2023-01-21T11:03:02.988Z,2.16
2023-01-21T11:05:32.390Z,2.20
2023-01-21T11:08:00.945Z,2.36
2023-01-21T11:10:29.415Z,2.34
2023-01-21T11:12:58.221Z,2.36
2023-01-21T11:15:27.359Z,2.35
2023-01-21T11:17:56.683Z,2.24
2023-01-21T11:20:33.718Z,2.24
2023-01-21T11:23:05.110Z,2.20
2023-01-21T11:25:38.622Z,2.32
2023-01-21T11:28:07.099Z,2.38
2023-01-21T11:30:50.697Z,2.42
2023-01-21T11:33:26.656Z,2.49
2023-01-21T11:35:58.415Z,2.46
2023-01-21T11:38:34.933Z,2.53
2023-01-21T11:41:05.864Z,2.52
2023-01-21T11:43:36.586Z,2.56
2023-01-21T11:46:28.515Z,2.71
2023-01-21T11:48:58.990Z,2.68
2023-01-21T11:51:28.745Z,2.72
2023-01-21T11:54:13.785Z,2.59
2023-01-21T11:56:44.320Z,2.62
2023-01-21T11:59:18.781Z,2.73
2023-01-21T12:01:53.714Z,2.80
2023-01-21T12:04:22.155Z,2.83
2023-01-21T12:06:57.964Z,2.82
2023-01-21T12:09:27.322Z,2.91
2023-01-21T12:12:28.211Z,3.05
2023-01-21T12:15:00.350Z,2.81
2023-01-21T12:17:40.079Z,2.93
2023-01-21T12:20:20.263Z,2.99
2023-01-21T12:23:13.132Z,2.91
2023-01-21T12:25:46.416Z,2.86
2023-01-21T12:28:44.482Z,2.78
2023-01-21T12:31:23.997Z,2.76
2023-01-21T12:33:59.114Z,2.62
2023-01-21T12:36:33.197Z,2.61
2023-01-21T12:39:18.945Z,2.75
2023-01-21T12:41:54.456Z,2.65
2023-01-21T12:44:29.884Z,2.60
2023-01-21T12:47:04.916Z,2.64
2023-01-21T12:50:04.761Z,2.67
2023-01-21T12:52:45.044Z,2.62
2023-01-21T12:55:22.007Z,2.60
2023-01-21T12:57:57.957Z,2.61
2023-01-21T13:00:30.013Z,2.60
2023-01-21T13:03:10.710Z,2.67
2023-01-21T13:05:45.455Z,2.85
2023-01-21T13:08:32.299Z,2.86
2023-01-21T13:11:07.906Z,2.86
2023-01-21T13:13:41.705Z,2.76
2023-01-21T13:16:12.654Z,2.57
2023-01-21T13:18:44.464Z,2.50
2023-01-21T13:21:20.409Z,2.26
2023-01-21T13:23:54.726Z,1.91
2023-01-21T13:26:32.995Z,1.65
2023-01-21T13:29:09.225Z,1.61
2023-01-21T13:31:46.672Z,1.45
2023-01-21T13:34:21.772Z,1.45
2023-01-21T13:37:01.325Z,1.37
2023-01-21T13:39:37.645Z,1.47
2023-01-21T13:42:24.959Z,1.43
2023-01-21T13:45:15.677Z,1.28
2023-01-21T13:48:03.327Z,1.34
2023-01-21T13:50:46.470Z,1.41
2023-01-21T13:53:30.704Z,1.38
2023-01-21T13:56:12.919Z,1.38
2023-01-21T13:58:47.788Z,1.43
2023-01-21T14:01:20.442Z,1.51
2023-01-21T14:03:56.549Z,1.32
2023-01-21T14:06:29.858Z,1.36
2023-01-21T14:09:02.339Z,1.34
2023-01-21T14:11:35.708Z,1.24
2023-01-21T14:14:42.351Z,1.41
2023-01-21T14:17:37.309Z,1.46
2023-01-21T14:20:36.822Z,1.47
2023-01-21T14:23:16.449Z,1.54
2023-01-21T14:25:59.048Z,1.54
2023-01-21T14:28:34.970Z,1.49
2023-01-21T14:31:11.798Z,1.53
2023-01-21T14:33:45.300Z,1.50
2023-01-21T14:36:18.945Z,1.49
2023-01-21T14:38:57.906Z,1.46
2023-01-21T14:41:26.220Z,1.34
2023-01-21T14:43:54.544Z,1.35
2023-01-21T14:46:32.782Z,1.39
2023-01-21T14:49:08.051Z,1.38
2023-01-21T14:51:38.446Z,1.34
2023-01-21T14:54:13.357Z,1.37
2023-01-21T14:56:52.538Z,1.34
2023-01-21T14:59:39.057Z,1.28
2023-01-21T15:02:28.836Z,1.22
2023-01-21T15:04:59.756Z,1.11
2023-01-21T15:07:31.932Z,1.05
2023-01-21T15:10:03.821Z,1.01
2023-01-21T15:12:34.648Z,0.94
2023-01-21T15:15:05.875Z,0.90
2023-01-21T15:18:06.532Z,0.86
2023-01-21T15:20:50.850Z,0.84
2023-01-21T15:23:37.475Z,0.80
2023-01-21T15:26:22.337Z,0.78
2023-01-21T15:28:55.696Z,0.75
2023-01-21T15:31:43.824Z,0.63
2023-01-21T15:34:21.586Z,0.62
2023-01-21T15:36:57.154Z,0.59
2023-01-21T15:39:34.545Z,0.61
2023-01-21T15:42:17.006Z,0.62
2023-01-21T15:45:06.134Z,0.55
2023-01-21T15:47:52.810Z,0.63
2023-01-21T15:50:25.731Z,0.54
2023-01-21T15:53:09.085Z,0.53
2023-01-21T15:55:57.132Z,0.45
2023-01-21T15:58:33.254Z,0.43
2023-01-21T16:01:07.124Z,0.39
2023-01-21T16:03:39.593Z,0.39
2023-01-21T16:06:18.747Z,0.32
2023-01-21T16:09:00.836Z,0.25
2023-01-21T16:11:48.226Z,0.20
2023-01-21T16:14:28.218Z,0.18
2023-01-21T16:17:07.237Z,0.17
2023-01-21T16:19:39.009Z,0.20
2023-01-21T16:22:11.938Z,0.29
2023-01-21T16:24:44.346Z,0.35
2023-01-21T16:27:21.151Z,0.43
2023-01-21T16:29:49.582Z,0.55
2023-01-21T16:32:19.430Z,0.61
2023-01-21T16:34:48.442Z,0.64
2023-01-21T16:37:22.290Z,0.63
2023-01-21T16:39:53.958Z,0.64
2023-01-21T16:42:30.569Z,0.64
2023-01-21T16:44:59.845Z,0.71
2023-01-21T16:47:32.430Z,0.76
2023-01-21T16:50:00.813Z,0.72
2023-01-21T16:52:31.838Z,0.87
2023-01-21T16:55:00.116Z,0.88
2023-01-21T16:57:31.876Z,0.91
2023-01-21T17:00:02.605Z,0.86
2023-01-21T17:02:33.829Z,0.87
2023-01-21T17:05:04.638Z,0.79
2023-01-21T17:07:39.237Z,0.81
2023-01-21T17:10:18.607Z,0.87
2023-01-21T17:12:48.747Z,0.84
2023-01-21T17:15:20.254Z,0.81
2023-01-21T17:17:48.760Z,0.81
2023-01-21T17:20:36.660Z,0.63
2023-01-21T17:23:08.743Z,0.50
2023-01-21T17:25:38.201Z,0.43
2023-01-21T17:28:28.555Z,0.35
2023-01-21T17:31:10.624Z,0.23
2023-01-21T17:33:39.737Z,0.14
2023-01-21T17:36:10.594Z,0.12
2023-01-21T17:38:42.496Z,0.07
2023-01-21T17:41:22.727Z,-0.02
2023-01-21T17:43:52.791Z,-0.07
2023-01-21T17:46:22.999Z,-0.08
2023-01-21T17:48:54.603Z,-0.09
2023-01-21T17:51:26.452Z,-0.11
2023-01-21T17:53:59.945Z,-0.13
2023-01-21T17:56:42.060Z,-0.16
2023-01-21T17:59:31.508Z,-0.22
2023-01-21T18:01:59.907Z,-0.26
2023-01-21T18:04:28.792Z,-0.31
2023-01-21T18:06:57.559Z,-0.35
2023-01-21T18:09:28.354Z,-0.39
2023-01-21T18:11:58.828Z,-0.45
2023-01-21T18:14:28.848Z,-0.50
2023-01-21T18:16:57.171Z,-0.51
2023-01-21T18:19:30.894Z,-0.59
2023-01-21T18:22:00.209Z,-0.65
2023-01-21T18:24:30.074Z,-0.65
2023-01-21T18:26:59.839Z,-0.59
2023-01-21T18:29:30.394Z,-0.58
2023-01-21T18:31:59.307Z,-0.57
2023-01-21T18:34:29.137Z,-0.59
2023-01-21T18:36:57.894Z,-0.57
2023-01-21T18:39:26.168Z,-0.56
2023-01-21T18:41:55.863Z,-0.61
2023-01-21T18:44:24.176Z,-0.68
2023-01-21T18:46:52.553Z,-0.70
2023-01-21T18:49:23.002Z,-0.69
2023-01-21T18:51:52.048Z,-0.74
2023-01-21T18:54:20.297Z,-0.79
2023-01-21T18:56:48.672Z,-0.73
2023-01-21T18:59:20.250Z,-0.67
2023-01-21T19:01:48.522Z,-0.66
2023-01-21T19:04:19.793Z,-0.67
2023-01-21T19:06:50.446Z,-0.66
2023-01-21T19:09:21.966Z,-0.72
2023-01-21T19:11:50.927Z,-0.72
2023-01-21T19:14:20.569Z,-0.73
2023-01-21T19:16:48.887Z,-0.73
2023-01-21T19:19:19.260Z,-0.76
2023-01-21T19:21:47.567Z,-0.79
2023-01-21T19:24:15.791Z,-0.79
2023-01-21T19:26:44.225Z,-0.80
2023-01-21T19:29:16.405Z,-0.82
2023-01-21T19:31:46.133Z,-0.81
2023-01-21T19:34:14.482Z,-0.79
2023-01-21T19:36:42.830Z,-0.79
2023-01-21T19:39:16.939Z,-0.82
2023-01-21T19:41:45.419Z,-0.89
2023-01-21T19:44:13.751Z,-0.88
2023-01-21T19:46:42.589Z,-0.90
2023-01-21T19:49:18.012Z,-0.91
2023-01-21T19:51:46.317Z,-0.91
2023-01-21T19:54:14.767Z,-0.91
2023-01-21T19:56:43.162Z,-0.94
2023-01-21T19:59:15.129Z,-0.97
2023-01-21T20:01:44.021Z,-0.97
2023-01-21T20:04:12.744Z,-0.96
2023-01-21T20:06:44.806Z,-0.99
2023-01-21T20:09:17.774Z,-1.01
2023-01-21T20:11:46.224Z,-0.99
2023-01-21T20:14:14.700Z,-1.03
2023-01-21T20:16:46.928Z,-1.04
2023-01-21T20:19:17.752Z,-1.06
2023-01-21T20:21:59.925Z,-1.08
2023-01-21T20:24:30.357Z,-1.06
2023-01-21T20:26:59.144Z,-1.03
2023-01-21T20:29:27.670Z,-1.05
2023-01-21T20:31:56.125Z,-1.04
2023-01-21T20:34:24.523Z,-0.99
2023-01-21T20:36:54.751Z,-0.85
2023-01-21T20:39:23.059Z,-0.77
2023-01-21T20:41:51.393Z,-0.94
2023-01-21T20:44:19.766Z,-1.00
2023-01-21T20:46:48.686Z,-1.13
2023-01-21T20:49:17.131Z,-1.16
2023-01-21T20:51:45.486Z,-1.16
2023-01-21T20:54:15.143Z,-1.16
2023-01-21T20:56:45.387Z,-1.21
2023-01-21T20:59:14.634Z,-1.15
2023-01-21T21:01:43.328Z,-1.20
2023-01-21T21:04:11.650Z,-1.06
2023-01-21T21:06:39.973Z,-1.04
2023-01-21T21:09:08.311Z,-0.99
2023-01-21T21:11:38.102Z,-1.02
2023-01-21T21:14:07.128Z,-1.03
2023-01-21T21:16:35.718Z,-0.97
2023-01-21T21:19:04.795Z,-0.91
2023-01-21T21:21:33.092Z,-0.82
2023-01-21T21:24:02.338Z,-0.89
2023-01-21T21:26:31.510Z,-0.84
2023-01-21T21:29:01.246Z,-0.87
2023-01-21T21:31:31.953Z,-0.88
2023-01-21T21:34:00.490Z,-0.85
2023-01-21T21:36:28.792Z,-0.99
2023-01-21T21:38:57.137Z,-1.14
2023-01-21T21:41:44.292Z,-1.16
2023-01-21T21:44:14.317Z,-1.20
2023-01-21T21:47:00.203Z,-1.14
2023-01-21T21:49:29.618Z,-1.15
2023-01-21T21:52:00.253Z,-1.12
2023-01-21T21:54:28.777Z,-1.16
2023-01-21T21:56:57.344Z,-1.13
2023-01-21T21:59:27.047Z,-1.12
2023-01-21T22:01:55.462Z,-1.01
2023-01-21T22:04:23.833Z,-1.05
2023-01-21T22:06:52.161Z,-1.03
2023-01-21T22:09:20.591Z,-0.96
2023-01-21T22:11:48.943Z,-0.89
2023-01-21T22:14:18.059Z,-0.94
2023-01-21T22:16:49.802Z,-0.88
2023-01-21T22:19:18.554Z,-0.87
2023-01-21T22:21:47.085Z,-0.89
2023-01-21T22:24:15.733Z,-0.96
2023-01-21T22:26:44.089Z,-0.97
2023-01-21T22:29:13.121Z,-0.94
2023-01-21T22:31:41.572Z,-0.91
2023-01-21T22:34:12.889Z,-0.90
2023-01-21T22:36:42.197Z,-0.90
2023-01-21T22:39:11.361Z,-0.85
2023-01-21T22:41:39.861Z,-0.82
2023-01-21T22:44:08.564Z,-0.87
2023-01-21T22:46:36.963Z,-0.82
2023-01-21T22:49:05.234Z,-0.85
2023-01-21T22:51:34.875Z,-0.97
2023-01-21T22:54:03.154Z,-0.91
2023-01-21T22:56:49.959Z,-0.94
2023-01-21T22:59:19.828Z,-0.95
2023-01-21T23:01:48.828Z,-0.90
2023-01-21T23:04:17.775Z,-0.88
2023-01-21T23:06:48.737Z,-0.88
2023-01-21T23:09:17.181Z,-0.85
2023-01-21T23:11:46.055Z,-0.88
2023-01-21T23:14:14.514Z,-0.82
2023-01-21T23:16:42.884Z,-0.82
2023-01-21T23:19:11.191Z,-0.88
2023-01-21T23:21:40.230Z,-0.88
2023-01-21T23:24:10.143Z,-0.83
2023-01-21T23:26:39.207Z,-0.79
2023-01-21T23:29:07.425Z,-0.76
2023-01-21T23:31:36.149Z,-0.83
2023-01-21T23:34:04.500Z,-0.82
2023-01-21T23:36:32.773Z,-0.82
2023-01-21T23:39:01.007Z,-0.76
2023-01-21T23:41:30.705Z,-0.86
2023-01-21T23:44:00.799Z,-0.81
2023-01-21T23:46:29.185Z,-0.77
2023-01-21T23:48:57.503Z,-0.72
2023-01-21T23:51:25.795Z,-0.72
2023-01-21T23:53:54.073Z,-0.73
2023-01-21T23:56:24.325Z,-0.70
2023-01-21T23:58:54.534Z,-0.68
